sensor_id;sensor_type;location;lat;lon;timestamp;P1;durP1;ratioP1;P2;durP2;ratioP2
12459;SDS011;6295;49.452;8.466;2024-02-21T10:14:19;9.63;;;4.57;;
12459;SDS011;6295;49.452;8.466;2024-02-21T10:18:21;10.93;;;4.50;;
12459;SDS011;6295;49.452;8.466;2024-02-21T10:22:23;7.73;;;4.47;;
12459;SDS011;6295;49.452;8.466;2024-02-21T10:26:26;9.30;;;4.30;;
12459;SDS011;6295;49.452;8.466;2024-02-21T10:30:30;7.17;;;4.10;;
12459;SDS011;6295;49.452;8.466;2024-02-21T10:34:32;7.20;;;3.97;;
12459;SDS011;6295;49.452;8.466;2024-02-21T10:38:36;6.93;;;3.67;;
12459;SDS011;6295;49.452;8.466;2024-02-21T10:42:39;5.57;;;3.50;;
12459;SDS011;6295;49.452;8.466;2024-02-21T10:46:43;9.00;;;3.97;;
12459;SDS011;6295;49.452;8.466;2024-02-21T10:50:50;8.10;;;3.37;;
12459;SDS011;6295;49.452;8.466;2024-02-21T10:54:58;8.90;;;3.90;;
12459;SDS011;6295;49.452;8.466;2024-02-21T10:59:06;10.50;;;3.63;;
12459;SDS011;6295;49.452;8.466;2024-02-21T11:03:10;8.07;;;3.30;;
12459;SDS011;6295;49.452;8.466;2024-02-21T11:07:13;5.40;;;3.20;;
12459;SDS011;6295;49.452;8.466;2024-02-21T11:11:17;6.37;;;3.20;;
12459;SDS011;6295;49.452;8.466;2024-02-21T11:15:25;4.53;;;2.90;;
12459;SDS011;6295;49.452;8.466;2024-02-21T11:19:33;5.67;;;3.07;;
12459;SDS011;6295;49.452;8.466;2024-02-21T11:23:39;10.70;;;3.27;;
12459;SDS011;6295;49.452;8.466;2024-02-21T11:27:46;5.47;;;3.07;;
12459;SDS011;6295;49.452;8.466;2024-02-21T11:31:48;6.73;;;3.33;;
12459;SDS011;6295;49.452;8.466;2024-02-21T11:35:52;5.90;;;3.27;;
12459;SDS011;6295;49.452;8.466;2024-02-21T11:39:54;5.57;;;3.07;;
12459;SDS011;6295;49.452;8.466;2024-02-21T11:43:56;7.50;;;3.43;;
12459;SDS011;6295;49.452;8.466;2024-02-21T11:47:59;7.33;;;3.37;;
12459;SDS011;6295;49.452;8.466;2024-02-21T11:52:05;6.67;;;3.30;;
12459;SDS011;6295;49.452;8.466;2024-02-21T11:56:07;6.07;;;3.30;;
12459;SDS011;6295;49.452;8.466;2024-02-21T12:00:13;5.50;;;2.90;;
12459;SDS011;6295;49.452;8.466;2024-02-21T12:04:16;5.80;;;3.17;;
12459;SDS011;6295;49.452;8.466;2024-02-21T12:08:23;8.27;;;3.33;;
12459;SDS011;6295;49.452;8.466;2024-02-21T12:12:29;6.17;;;2.80;;
12459;SDS011;6295;49.452;8.466;2024-02-21T12:16:36;6.13;;;2.80;;
12459;SDS011;6295;49.452;8.466;2024-02-21T12:20:38;5.47;;;3.17;;
12459;SDS011;6295;49.452;8.466;2024-02-21T12:24:42;5.73;;;3.07;;
12459;SDS011;6295;49.452;8.466;2024-02-21T12:28:48;4.93;;;3.00;;
12459;SDS011;6295;49.452;8.466;2024-02-21T12:32:50;5.87;;;2.80;;
12459;SDS011;6295;49.452;8.466;2024-02-21T12:36:52;6.20;;;2.83;;
12459;SDS011;6295;49.452;8.466;2024-02-21T12:40:58;4.43;;;2.83;;
12459;SDS011;6295;49.452;8.466;2024-02-21T12:45:04;4.83;;;2.60;;
12459;SDS011;6295;49.452;8.466;2024-02-21T12:49:06;5.43;;;2.83;;
12459;SDS011;6295;49.452;8.466;2024-02-21T12:53:09;5.07;;;2.57;;
12459;SDS011;6295;49.452;8.466;2024-02-21T12:57:16;5.67;;;2.80;;
12459;SDS011;6295;49.452;8.466;2024-02-21T13:01:19;4.40;;;2.73;;
12459;SDS011;6295;49.452;8.466;2024-02-21T13:05:21;7.53;;;3.13;;
12459;SDS011;6295;49.452;8.466;2024-02-21T13:09:23;5.20;;;2.90;;
12459;SDS011;6295;49.452;8.466;2024-02-21T13:13:27;6.37;;;3.20;;
12459;SDS011;6295;49.452;8.466;2024-02-21T13:17:30;5.60;;;2.90;;
12459;SDS011;6295;49.452;8.466;2024-02-21T13:21:34;5.20;;;2.80;;
12459;SDS011;6295;49.452;8.466;2024-02-21T13:25:38;5.13;;;2.70;;
12459;SDS011;6295;49.452;8.466;2024-02-21T13:29:47;5.90;;;2.63;;
12459;SDS011;6295;49.452;8.466;2024-02-21T13:33:52;6.47;;;3.33;;
12459;SDS011;6295;49.452;8.466;2024-02-21T13:37:57;5.97;;;3.73;;
12459;SDS011;6295;49.452;8.466;2024-02-21T13:42:02;5.27;;;3.30;;
12459;SDS011;6295;49.452;8.466;2024-02-21T13:46:07;5.57;;;3.00;;
12459;SDS011;6295;49.452;8.466;2024-02-21T13:50:12;6.23;;;2.83;;
12459;SDS011;6295;49.452;8.466;2024-02-21T13:54:16;4.00;;;2.50;;
12459;SDS011;6295;49.452;8.466;2024-02-21T13:58:19;4.87;;;2.67;;
12459;SDS011;6295;49.452;8.466;2024-02-21T14:02:23;4.30;;;2.77;;
12459;SDS011;6295;49.452;8.466;2024-02-21T14:06:25;3.20;;;2.20;;
12459;SDS011;6295;49.452;8.466;2024-02-21T14:10:27;6.93;;;2.70;;
12459;SDS011;6295;49.452;8.466;2024-02-21T14:14:29;7.03;;;2.70;;
12459;SDS011;6295;49.452;8.466;2024-02-21T14:18:34;4.20;;;2.33;;
12459;SDS011;6295;49.452;8.466;2024-02-21T14:22:38;4.97;;;2.60;;
12459;SDS011;6295;49.452;8.466;2024-02-21T14:26:43;4.20;;;2.43;;
12459;SDS011;6295;49.452;8.466;2024-02-21T14:30:45;7.23;;;2.70;;
12459;SDS011;6295;49.452;8.466;2024-02-21T14:34:50;8.07;;;3.00;;
12459;SDS011;6295;49.452;8.466;2024-02-21T14:38:52;5.47;;;2.60;;
12459;SDS011;6295;49.452;8.466;2024-02-21T14:42:54;5.43;;;2.70;;
12459;SDS011;6295;49.452;8.466;2024-02-21T14:46:57;5.43;;;2.50;;
12459;SDS011;6295;49.452;8.466;2024-02-21T14:51:01;4.93;;;2.50;;
12459;SDS011;6295;49.452;8.466;2024-02-21T14:55:05;5.33;;;2.67;;
12459;SDS011;6295;49.452;8.466;2024-02-21T14:59:10;4.77;;;2.57;;
12459;SDS011;6295;49.452;8.466;2024-02-21T15:03:16;3.63;;;2.10;;
12459;SDS011;6295;49.452;8.466;2024-02-21T15:07:21;5.30;;;2.53;;
12459;SDS011;6295;49.452;8.466;2024-02-21T15:11:24;5.37;;;2.33;;
12459;SDS011;6295;49.452;8.466;2024-02-21T15:15:27;3.57;;;2.30;;
12459;SDS011;6295;49.452;8.466;2024-02-21T15:19:30;3.43;;;2.00;;
12459;SDS011;6295;49.452;8.466;2024-02-21T15:23:34;4.60;;;1.93;;
12459;SDS011;6295;49.452;8.466;2024-02-21T15:27:38;3.73;;;2.20;;
12459;SDS011;6295;49.452;8.466;2024-02-21T15:31:41;4.00;;;1.93;;
12459;SDS011;6295;49.452;8.466;2024-02-21T15:35:48;3.07;;;2.27;;
12459;SDS011;6295;49.452;8.466;2024-02-21T15:39:53;5.13;;;2.33;;
12459;SDS011;6295;49.452;8.466;2024-02-21T15:43:56;3.67;;;2.13;;
12459;SDS011;6295;49.452;8.466;2024-02-21T15:47:59;6.37;;;2.37;;
12459;SDS011;6295;49.452;8.466;2024-02-21T15:52:04;5.20;;;2.53;;
12459;SDS011;6295;49.452;8.466;2024-02-21T15:56:10;4.43;;;2.70;;
